sensor_id;sensor_type;location;lat;lon;timestamp;P1;durP1;ratioP1;P2;durP2;ratioP2
16922;SDS011;8578;50.938;13.556;2023-04-02T00:06:36;4.53;;;2.20;;
16922;SDS011;8578;50.938;13.556;2023-04-02T00:09:28;3.47;;;2.07;;
16922;SDS011;8578;50.938;13.556;2023-04-02T00:11:56;3.80;;;2.00;;
16922;SDS011;8578;50.938;13.556;2023-04-02T00:14:27;2.53;;;1.63;;
16922;SDS011;8578;50.938;13.556;2023-04-02T00:16:56;2.63;;;1.80;;
16922;SDS011;8578;50.938;13.556;2023-04-02T00:19:25;1.60;;;1.30;;
16922;SDS011;8578;50.938;13.556;2023-04-02T00:21:54;4.00;;;1.83;;
16922;SDS011;8578;50.938;13.556;2023-04-02T00:24:23;3.33;;;2.10;;
16922;SDS011;8578;50.938;13.556;2023-04-02T00:26:51;3.73;;;1.90;;
16922;SDS011;8578;50.938;13.556;2023-04-02T00:29:19;4.50;;;3.10;;
16922;SDS011;8578;50.938;13.556;2023-04-02T00:31:50;4.87;;;2.67;;
16922;SDS011;8578;50.938;13.556;2023-04-02T00:34:19;4.70;;;3.17;;
16922;SDS011;8578;50.938;13.556;2023-04-02T00:36:48;4.23;;;2.87;;
16922;SDS011;8578;50.938;13.556;2023-04-02T00:39:17;4.77;;;3.10;;
16922;SDS011;8578;50.938;13.556;2023-04-02T00:41:45;4.50;;;3.00;;
16922;SDS011;8578;50.938;13.556;2023-04-02T00:44:15;4.57;;;3.13;;
16922;SDS011;8578;50.938;13.556;2023-04-02T00:46:47;5.73;;;3.00;;
16922;SDS011;8578;50.938;13.556;2023-04-02T00:49:18;4.57;;;2.83;;
16922;SDS011;8578;50.938;13.556;2023-04-02T00:51:48;4.37;;;3.00;;
16922;SDS011;8578;50.938;13.556;2023-04-02T00:54:18;4.80;;;2.77;;
16922;SDS011;8578;50.938;13.556;2023-04-02T00:56:48;4.63;;;2.73;;
16922;SDS011;8578;50.938;13.556;2023-04-02T00:59:19;4.00;;;2.90;;
16922;SDS011;8578;50.938;13.556;2023-04-02T01:01:50;3.07;;;2.33;;
16922;SDS011;8578;50.938;13.556;2023-04-02T01:07:09;2.93;;;2.00;;
16922;SDS011;8578;50.938;13.556;2023-04-02T01:12:23;1.77;;;1.40;;
16922;SDS011;8578;50.938;13.556;2023-04-02T01:14:54;3.20;;;1.87;;
16922;SDS011;8578;50.938;13.556;2023-04-02T01:17:28;3.33;;;2.10;;
16922;SDS011;8578;50.938;13.556;2023-04-02T01:22:49;2.33;;;1.97;;
16922;SDS011;8578;50.938;13.556;2023-04-02T01:25:20;2.20;;;1.60;;
16922;SDS011;8578;50.938;13.556;2023-04-02T01:27:50;4.20;;;2.37;;
16922;SDS011;8578;50.938;13.556;2023-04-02T01:30:20;2.90;;;1.70;;
16922;SDS011;8578;50.938;13.556;2023-04-02T01:32:48;2.73;;;1.87;;
16922;SDS011;8578;50.938;13.556;2023-04-02T01:35:15;2.37;;;1.90;;
16922;SDS011;8578;50.938;13.556;2023-04-02T01:37:44;2.73;;;1.93;;
16922;SDS011;8578;50.938;13.556;2023-04-02T01:40:28;3.20;;;2.20;;
16922;SDS011;8578;50.938;13.556;2023-04-02T01:42:58;2.83;;;2.03;;
16922;SDS011;8578;50.938;13.556;2023-04-02T01:45:30;4.07;;;2.53;;
16922;SDS011;8578;50.938;13.556;2023-04-02T01:47:57;2.73;;;1.97;;
16922;SDS011;8578;50.938;13.556;2023-04-02T01:50:26;3.20;;;2.33;;
16922;SDS011;8578;50.938;13.556;2023-04-02T01:52:58;3.47;;;2.40;;
16922;SDS011;8578;50.938;13.556;2023-04-02T01:55:29;4.30;;;2.73;;
16922;SDS011;8578;50.938;13.556;2023-04-02T01:57:57;3.80;;;2.47;;
16922;SDS011;8578;50.938;13.556;2023-04-02T02:00:26;3.00;;;2.10;;
16922;SDS011;8578;50.938;13.556;2023-04-02T02:02:57;3.60;;;2.27;;
16922;SDS011;8578;50.938;13.556;2023-04-02T02:05:26;5.17;;;2.80;;
16922;SDS011;8578;50.938;13.556;2023-04-02T02:07:55;2.60;;;2.00;;
16922;SDS011;8578;50.938;13.556;2023-04-02T02:10:25;3.30;;;2.30;;
16922;SDS011;8578;50.938;13.556;2023-04-02T02:12:52;2.90;;;2.10;;
16922;SDS011;8578;50.938;13.556;2023-04-02T02:15:21;2.97;;;1.40;;
16922;SDS011;8578;50.938;13.556;2023-04-02T02:17:49;3.30;;;1.60;;
16922;SDS011;8578;50.938;13.556;2023-04-02T02:20:21;3.33;;;1.67;;
16922;SDS011;8578;50.938;13.556;2023-04-02T02:22:49;2.93;;;2.00;;
16922;SDS011;8578;50.938;13.556;2023-04-02T02:25:17;3.60;;;2.50;;
16922;SDS011;8578;50.938;13.556;2023-04-02T02:27:48;2.17;;;1.90;;
16922;SDS011;8578;50.938;13.556;2023-04-02T02:30:21;3.03;;;2.10;;
16922;SDS011;8578;50.938;13.556;2023-04-02T02:32:51;2.17;;;1.57;;
16922;SDS011;8578;50.938;13.556;2023-04-02T02:35:21;2.00;;;1.67;;
16922;SDS011;8578;50.938;13.556;2023-04-02T02:37:52;2.30;;;1.50;;
16922;SDS011;8578;50.938;13.556;2023-04-02T02:40:22;1.90;;;1.23;;
16922;SDS011;8578;50.938;13.556;2023-04-02T02:42:53;2.53;;;1.57;;
16922;SDS011;8578;50.938;13.556;2023-04-02T02:45:24;2.70;;;1.63;;
16922;SDS011;8578;50.938;13.556;2023-04-02T02:47:52;2.03;;;1.80;;
16922;SDS011;8578;50.938;13.556;2023-04-02T02:50:22;2.67;;;1.90;;
16922;SDS011;8578;50.938;13.556;2023-04-02T02:52:53;3.60;;;2.53;;
16922;SDS011;8578;50.938;13.556;2023-04-02T02:55:23;3.57;;;2.63;;
16922;SDS011;8578;50.938;13.556;2023-04-02T02:58:00;3.27;;;2.33;;
16922;SDS011;8578;50.938;13.556;2023-04-02T03:00:35;3.57;;;2.03;;
16922;SDS011;8578;50.938;13.556;2023-04-02T03:03:04;4.57;;;2.33;;
16922;SDS011;8578;50.938;13.556;2023-04-02T03:05:34;4.07;;;2.73;;
16922;SDS011;8578;50.938;13.556;2023-04-02T03:08:09;5.40;;;3.20;;
16922;SDS011;8578;50.938;13.556;2023-04-02T03:10:40;3.57;;;2.50;;
16922;SDS011;8578;50.938;13.556;2023-04-02T03:13:11;2.23;;;1.63;;
16922;SDS011;8578;50.938;13.556;2023-04-02T03:15:46;5.00;;;2.77;;
16922;SDS011;8578;50.938;13.556;2023-04-02T03:18:16;2.87;;;2.13;;
16922;SDS011;8578;50.938;13.556;2023-04-02T03:20:53;3.30;;;2.30;;
16922;SDS011;8578;50.938;13.556;2023-04-02T03:23:24;4.10;;;2.63;;
16922;SDS011;8578;50.938;13.556;2023-04-02T03:25:55;4.20;;;1.90;;
16922;SDS011;8578;50.938;13.556;2023-04-02T03:28:24;3.40;;;2.33;;
16922;SDS011;8578;50.938;13.556;2023-04-02T03:30:55;2.50;;;2.03;;
16922;SDS011;8578;50.938;13.556;2023-04-02T03:33:23;3.30;;;2.57;;
16922;SDS011;8578;50.938;13.556;2023-04-02T03:35:55;3.33;;;2.57;;
16922;SDS011;8578;50.938;13.556;2023-04-02T03:38:25;4.30;;;2.17;;
16922;SDS011;8578;50.938;13.556;2023-04-02T03:40:58;3.03;;;2.13;;
16922;SDS011;8578;50.938;13.556;2023-04-02T03:43:30;4.03;;;2.53;;
16922;SDS011;8578;50.938;13.556;2023-04-02T03:45:59;2.13;;;1.63;;
16922;SDS011;8578;50.938;13.556;2023-04-02T03:48:30;3.83;;;2.20;;
16922;SDS011;8578;50.938;13.556;2023-04-02T03:51:03;2.37;;;1.90;;
16922;SDS011;8578;50.938;13.556;2023-04-02T03:53:32;1.50;;;1.13;;
16922;SDS011;8578;50.938;13.556;2023-04-02T03:56:00;1.77;;;1.13;;
16922;SDS011;8578;50.938;13.556;2023-04-02T03:58:31;1.93;;;1.43;;
16922;SDS011;8578;50.938;13.556;2023-04-02T04:01:02;1.70;;;1.40;;
16922;SDS011;8578;50.938;13.556;2023-04-02T04:03:36;3.03;;;1.20;;
16922;SDS011;8578;50.938;13.556;2023-04-02T04:06:07;1.57;;;0.90;;
16922;SDS011;8578;50.938;13.556;2023-04-02T04:08:37;1.40;;;1.00;;
16922;SDS011;8578;50.938;13.556;2023-04-02T04:11:09;2.20;;;1.53;;
16922;SDS011;8578;50.938;13.556;2023-04-02T04:13:40;2.33;;;1.30;;
16922;SDS011;8578;50.938;13.556;2023-04-02T04:16:10;3.13;;;1.20;;
16922;SDS011;8578;50.938;13.556;2023-04-02T04:18:40;2.03;;;1.13;;
16922;SDS011;8578;50.938;13.556;2023-04-02T04:21:14;1.60;;;1.30;;
16922;SDS011;8578;50.938;13.556;2023-04-02T04:24:00;1.90;;;1.30;;
16922;SDS011;8578;50.938;13.556;2023-04-02T04:26:33;1.53;;;1.20;;
16922;SDS011;8578;50.938;13.556;2023-04-02T04:29:03;2.30;;;0.80;;
16922;SDS011;8578;50.938;13.556;2023-04-02T04:31:37;1.03;;;0.80;;
16922;SDS011;8578;50.938;13.556;2023-04-02T04:34:10;1.10;;;0.70;;
16922;SDS011;8578;50.938;13.556;2023-04-02T04:36:43;1.20;;;1.00;;
16922;SDS011;8578;50.938;13.556;2023-04-02T04:39:14;3.50;;;1.20;;
16922;SDS011;8578;50.938;13.556;2023-04-02T04:41:46;1.80;;;1.33;;
16922;SDS011;8578;50.938;13.556;2023-04-02T04:44:17;1.17;;;0.63;;
16922;SDS011;8578;50.938;13.556;2023-04-02T04:46:51;3.70;;;1.30;;
16922;SDS011;8578;50.938;13.556;2023-04-02T04:49:22;1.50;;;0.93;;
16922;SDS011;8578;50.938;13.556;2023-04-02T04:51:53;2.20;;;1.43;;
16922;SDS011;8578;50.938;13.556;2023-04-02T04:54:24;1.43;;;1.03;;
16922;SDS011;8578;50.938;13.556;2023-04-02T04:56:54;1.57;;;1.40;;
16922;SDS011;8578;50.938;13.556;2023-04-02T04:59:24;2.47;;;1.60;;
16922;SDS011;8578;50.938;13.556;2023-04-02T05:01:56;2.60;;;1.60;;
16922;SDS011;8578;50.938;13.556;2023-04-02T05:04:28;1.63;;;1.00;;
16922;SDS011;8578;50.938;13.556;2023-04-02T05:07:01;1.37;;;0.80;;
16922;SDS011;8578;50.938;13.556;2023-04-02T05:09:31;1.83;;;1.30;;
16922;SDS011;8578;50.938;13.556;2023-04-02T05:12:02;1.33;;;1.00;;
16922;SDS011;8578;50.938;13.556;2023-04-02T05:14:32;1.97;;;1.33;;
16922;SDS011;8578;50.938;13.556;2023-04-02T05:17:03;3.47;;;1.43;;
16922;SDS011;8578;50.938;13.556;2023-04-02T05:19:33;4.30;;;1.73;;
16922;SDS011;8578;50.938;13.556;2023-04-02T05:22:12;3.40;;;1.50;;
16922;SDS011;8578;50.938;13.556;2023-04-02T05:24:54;2.60;;;1.67;;
16922;SDS011;8578;50.938;13.556;2023-04-02T05:27:24;2.70;;;1.93;;
16922;SDS011;8578;50.938;13.556;2023-04-02T05:29:55;3.80;;;1.73;;
16922;SDS011;8578;50.938;13.556;2023-04-02T05:32:24;1.97;;;1.40;;
16922;SDS011;8578;50.938;13.556;2023-04-02T05:34:53;3.20;;;1.30;;
16922;SDS011;8578;50.938;13.556;2023-04-02T05:37:23;3.20;;;1.67;;
16922;SDS011;8578;50.938;13.556;2023-04-02T05:39:53;2.67;;;1.60;;
16922;SDS011;8578;50.938;13.556;2023-04-02T05:42:21;1.97;;;1.47;;
16922;SDS011;8578;50.938;13.556;2023-04-02T05:44:57;2.60;;;1.60;;
16922;SDS011;8578;50.938;13.556;2023-04-02T05:47:30;2.03;;;1.50;;
16922;SDS011;8578;50.938;13.556;2023-04-02T05:50:08;2.13;;;1.53;;
16922;SDS011;8578;50.938;13.556;2023-04-02T05:52:46;1.53;;;1.10;;
16922;SDS011;8578;50.938;13.556;2023-04-02T05:58:05;2.10;;;1.60;;
16922;SDS011;8578;50.938;13.556;2023-04-02T06:00:59;2.03;;;1.40;;
16922;SDS011;8578;50.938;13.556;2023-04-02T06:03:30;2.17;;;1.40;;
16922;SDS011;8578;50.938;13.556;2023-04-02T06:06:02;2.40;;;1.47;;
16922;SDS011;8578;50.938;13.556;2023-04-02T06:08:35;3.37;;;1.90;;
16922;SDS011;8578;50.938;13.556;2023-04-02T06:11:05;4.17;;;2.20;;
16922;SDS011;8578;50.938;13.556;2023-04-02T06:13:35;2.43;;;1.67;;
16922;SDS011;8578;50.938;13.556;2023-04-02T06:16:04;3.83;;;2.40;;
16922;SDS011;8578;50.938;13.556;2023-04-02T06:18:33;2.83;;;2.20;;
16922;SDS011;8578;50.938;13.556;2023-04-02T06:21:03;3.60;;;2.50;;
16922;SDS011;8578;50.938;13.556;2023-04-02T06:23:31;2.90;;;1.67;;
16922;SDS011;8578;50.938;13.556;2023-04-02T06:26:05;4.57;;;2.17;;
16922;SDS011;8578;50.938;13.556;2023-04-02T06:28:37;5.73;;;3.00;;
16922;SDS011;8578;50.938;13.556;2023-04-02T06:31:08;3.60;;;2.30;;
16922;SDS011;8578;50.938;13.556;2023-04-02T06:33:37;3.80;;;2.40;;
16922;SDS011;8578;50.938;13.556;2023-04-02T06:36:06;2.77;;;1.73;;
16922;SDS011;8578;50.938;13.556;2023-04-02T06:38:35;2.90;;;1.87;;
16922;SDS011;8578;50.938;13.556;2023-04-02T06:41:11;4.73;;;1.93;;
16922;SDS011;8578;50.938;13.556;2023-04-02T06:44:04;2.23;;;1.40;;
16922;SDS011;8578;50.938;13.556;2023-04-02T06:46:48;2.87;;;2.20;;
16922;SDS011;8578;50.938;13.556;2023-04-02T06:49:20;3.03;;;1.60;;
16922;SDS011;8578;50.938;13.556;2023-04-02T06:51:54;2.73;;;1.97;;
16922;SDS011;8578;50.938;13.556;2023-04-02T06:54:23;2.40;;;1.93;;
16922;SDS011;8578;50.938;13.556;2023-04-02T06:56:57;3.87;;;2.30;;
16922;SDS011;8578;50.938;13.556;2023-04-02T06:59:37;4.57;;;2.43;;
16922;SDS011;8578;50.938;13.556;2023-04-02T07:02:15;3.93;;;1.90;;
16922;SDS011;8578;50.938;13.556;2023-04-02T07:04:46;3.03;;;2.00;;
16922;SDS011;8578;50.938;13.556;2023-04-02T07:07:16;2.40;;;1.50;;
16922;SDS011;8578;50.938;13.556;2023-04-02T07:09:46;2.97;;;1.70;;
16922;SDS011;8578;50.938;13.556;2023-04-02T07:12:17;2.83;;;1.80;;
16922;SDS011;8578;50.938;13.556;2023-04-02T07:14:45;2.50;;;1.40;;
16922;SDS011;8578;50.938;13.556;2023-04-02T07:17:13;2.43;;;1.73;;
16922;SDS011;8578;50.938;13.556;2023-04-02T07:19:42;2.83;;;1.83;;
16922;SDS011;8578;50.938;13.556;2023-04-02T07:22:11;2.27;;;1.53;;
16922;SDS011;8578;50.938;13.556;2023-04-02T07:24:41;2.57;;;1.50;;
16922;SDS011;8578;50.938;13.556;2023-04-02T07:27:09;3.63;;;2.20;;
16922;SDS011;8578;50.938;13.556;2023-04-02T07:29:38;3.40;;;1.90;;
16922;SDS011;8578;50.938;13.556;2023-04-02T07:32:08;2.80;;;1.77;;
16922;SDS011;8578;50.938;13.556;2023-04-02T07:34:35;2.57;;;1.47;;
16922;SDS011;8578;50.938;13.556;2023-04-02T07:37:03;3.30;;;2.23;;
16922;SDS011;8578;50.938;13.556;2023-04-02T07:39:32;6.50;;;1.97;;
16922;SDS011;8578;50.938;13.556;2023-04-02T07:42:02;3.17;;;1.73;;
16922;SDS011;8578;50.938;13.556;2023-04-02T07:44:29;3.30;;;1.53;;
16922;SDS011;8578;50.938;13.556;2023-04-02T07:46:58;6.27;;;2.60;;
16922;SDS011;8578;50.938;13.556;2023-04-02T07:49:26;5.00;;;2.60;;
16922;SDS011;8578;50.938;13.556;2023-04-02T07:51:53;5.20;;;2.10;;
16922;SDS011;8578;50.938;13.556;2023-04-02T07:54:21;4.13;;;2.37;;
16922;SDS011;8578;50.938;13.556;2023-04-02T07:56:48;2.93;;;2.07;;
16922;SDS011;8578;50.938;13.556;2023-04-02T07:59:16;4.13;;;2.50;;
16922;SDS011;8578;50.938;13.556;2023-04-02T08:01:43;4.07;;;2.13;;
16922;SDS011;8578;50.938;13.556;2023-04-02T08:04:16;4.07;;;2.60;;
16922;SDS011;8578;50.938;13.556;2023-04-02T08:06:44;6.33;;;2.00;;
16922;SDS011;8578;50.938;13.556;2023-04-02T08:09:12;3.30;;;1.97;;
16922;SDS011;8578;50.938;13.556;2023-04-02T08:11:40;5.70;;;2.13;;
16922;SDS011;8578;50.938;13.556;2023-04-02T08:14:08;2.70;;;1.80;;
16922;SDS011;8578;50.938;13.556;2023-04-02T08:16:42;3.77;;;1.97;;
16922;SDS011;8578;50.938;13.556;2023-04-02T08:19:09;3.50;;;1.87;;
16922;SDS011;8578;50.938;13.556;2023-04-02T08:21:38;2.57;;;1.83;;
16922;SDS011;8578;50.938;13.556;2023-04-02T08:24:06;1.40;;;1.10;;
16922;SDS011;8578;50.938;13.556;2023-04-02T08:26:33;1.67;;;1.10;;
16922;SDS011;8578;50.938;13.556;2023-04-02T08:29:01;2.50;;;1.87;;
16922;SDS011;8578;50.938;13.556;2023-04-02T08:31:29;2.90;;;1.63;;
16922;SDS011;8578;50.938;13.556;2023-04-02T08:33:57;2.90;;;1.47;;
16922;SDS011;8578;50.938;13.556;2023-04-02T08:36:26;4.33;;;1.60;;
16922;SDS011;8578;50.938;13.556;2023-04-02T08:38:56;5.53;;;1.80;;
16922;SDS011;8578;50.938;13.556;2023-04-02T08:41:24;3.17;;;1.70;;
16922;SDS011;8578;50.938;13.556;2023-04-02T08:44:06;2.00;;;1.20;;
16922;SDS011;8578;50.938;13.556;2023-04-02T08:46:36;2.80;;;1.80;;
16922;SDS011;8578;50.938;13.556;2023-04-02T08:49:10;2.57;;;1.60;;
16922;SDS011;8578;50.938;13.556;2023-04-02T08:51:38;2.60;;;1.80;;
16922;SDS011;8578;50.938;13.556;2023-04-02T08:54:10;2.67;;;1.90;;
16922;SDS011;8578;50.938;13.556;2023-04-02T08:56:43;5.70;;;2.40;;
16922;SDS011;8578;50.938;13.556;2023-04-02T08:59:14;5.10;;;2.20;;
16922;SDS011;8578;50.938;13.556;2023-04-02T09:01:47;4.13;;;2.30;;
16922;SDS011;8578;50.938;13.556;2023-04-02T09:04:17;3.33;;;2.30;;
16922;SDS011;8578;50.938;13.556;2023-04-02T09:06:46;5.93;;;2.57;;
16922;SDS011;8578;50.938;13.556;2023-04-02T09:09:15;3.53;;;1.67;;
16922;SDS011;8578;50.938;13.556;2023-04-02T09:11:45;4.57;;;2.33;;
16922;SDS011;8578;50.938;13.556;2023-04-02T09:14:15;3.80;;;2.47;;
16922;SDS011;8578;50.938;13.556;2023-04-02T09:16:44;3.67;;;2.17;;
16922;SDS011;8578;50.938;13.556;2023-04-02T09:19:16;4.13;;;2.43;;
16922;SDS011;8578;50.938;13.556;2023-04-02T09:21:45;4.93;;;2.50;;
16922;SDS011;8578;50.938;13.556;2023-04-02T09:24:15;4.60;;;2.30;;
16922;SDS011;8578;50.938;13.556;2023-04-02T09:26:43;3.87;;;1.90;;
16922;SDS011;8578;50.938;13.556;2023-04-02T09:29:21;2.80;;;2.10;;
16922;SDS011;8578;50.938;13.556;2023-04-02T09:31:53;3.73;;;2.23;;
16922;SDS011;8578;50.938;13.556;2023-04-02T09:34:27;2.93;;;1.90;;
16922;SDS011;8578;50.938;13.556;2023-04-02T09:36:55;3.03;;;2.00;;
16922;SDS011;8578;50.938;13.556;2023-04-02T09:39:24;2.97;;;1.70;;
16922;SDS011;8578;50.938;13.556;2023-04-02T09:41:52;3.43;;;1.60;;
16922;SDS011;8578;50.938;13.556;2023-04-02T09:44:30;3.97;;;1.50;;
16922;SDS011;8578;50.938;13.556;2023-04-02T09:46:58;3.07;;;1.60;;
16922;SDS011;8578;50.938;13.556;2023-04-02T09:49:29;3.67;;;1.20;;
16922;SDS011;8578;50.938;13.556;2023-04-02T09:54:45;3.37;;;1.80;;
16922;SDS011;8578;50.938;13.556;2023-04-02T09:57:19;2.30;;;1.53;;
16922;SDS011;8578;50.938;13.556;2023-04-02T10:00:09;2.87;;;1.70;;
16922;SDS011;8578;50.938;13.556;2023-04-02T10:03:00;2.77;;;2.07;;
16922;SDS011;8578;50.938;13.556;2023-04-02T10:05:28;3.87;;;1.70;;
16922;SDS011;8578;50.938;13.556;2023-04-02T10:08:08;2.60;;;2.00;;
16922;SDS011;8578;50.938;13.556;2023-04-02T10:10:38;3.27;;;2.13;;
16922;SDS011;8578;50.938;13.556;2023-04-02T10:13:07;2.43;;;2.03;;
16922;SDS011;8578;50.938;13.556;2023-04-02T10:15:38;3.90;;;2.10;;
16922;SDS011;8578;50.938;13.556;2023-04-02T10:18:11;4.30;;;1.70;;
16922;SDS011;8578;50.938;13.556;2023-04-02T10:20:39;3.70;;;2.17;;
16922;SDS011;8578;50.938;13.556;2023-04-02T10:23:16;4.43;;;1.70;;
16922;SDS011;8578;50.938;13.556;2023-04-02T10:25:47;2.50;;;1.50;;
16922;SDS011;8578;50.938;13.556;2023-04-02T10:28:17;3.20;;;1.97;;
16922;SDS011;8578;50.938;13.556;2023-04-02T10:30:53;13.23;;;1.60;;
16922;SDS011;8578;50.938;13.556;2023-04-02T10:33:24;2.23;;;1.77;;
16922;SDS011;8578;50.938;13.556;2023-04-02T10:35:55;3.07;;;1.37;;
16922;SDS011;8578;50.938;13.556;2023-04-02T10:38:25;5.70;;;2.50;;
16922;SDS011;8578;50.938;13.556;2023-04-02T10:40:58;3.90;;;1.97;;
16922;SDS011;8578;50.938;13.556;2023-04-02T10:43:38;3.13;;;1.90;;
16922;SDS011;8578;50.938;13.556;2023-04-02T10:46:11;2.20;;;1.30;;
16922;SDS011;8578;50.938;13.556;2023-04-02T10:48:43;1.73;;;1.27;;
16922;SDS011;8578;50.938;13.556;2023-04-02T10:51:15;2.50;;;1.53;;
16922;SDS011;8578;50.938;13.556;2023-04-02T10:53:46;4.57;;;1.50;;
16922;SDS011;8578;50.938;13.556;2023-04-02T10:56:19;4.93;;;1.67;;
16922;SDS011;8578;50.938;13.556;2023-04-02T10:58:49;4.10;;;1.80;;
16922;SDS011;8578;50.938;13.556;2023-04-02T11:01:22;3.17;;;1.87;;
16922;SDS011;8578;50.938;13.556;2023-04-02T11:03:53;1.80;;;1.17;;
16922;SDS011;8578;50.938;13.556;2023-04-02T11:06:24;3.67;;;1.73;;
16922;SDS011;8578;50.938;13.556;2023-04-02T11:08:54;3.53;;;1.57;;
16922;SDS011;8578;50.938;13.556;2023-04-02T11:11:25;1.67;;;0.90;;
16922;SDS011;8578;50.938;13.556;2023-04-02T11:13:54;4.70;;;1.60;;
16922;SDS011;8578;50.938;13.556;2023-04-02T11:16:23;3.13;;;1.30;;
16922;SDS011;8578;50.938;13.556;2023-04-02T11:19:15;2.20;;;1.17;;
16922;SDS011;8578;50.938;13.556;2023-04-02T11:21:46;2.90;;;1.07;;
16922;SDS011;8578;50.938;13.556;2023-04-02T11:24:29;1.67;;;1.30;;
16922;SDS011;8578;50.938;13.556;2023-04-02T11:27:04;1.77;;;0.93;;
16922;SDS011;8578;50.938;13.556;2023-04-02T11:29:32;2.80;;;1.70;;
16922;SDS011;8578;50.938;13.556;2023-04-02T11:34:57;4.20;;;1.60;;
16922;SDS011;8578;50.938;13.556;2023-04-02T11:37:33;2.23;;;1.67;;
16922;SDS011;8578;50.938;13.556;2023-04-02T11:40:01;3.67;;;1.40;;
16922;SDS011;8578;50.938;13.556;2023-04-02T11:42:34;2.67;;;1.80;;
16922;SDS011;8578;50.938;13.556;2023-04-02T11:50:34;4.53;;;2.37;;
16922;SDS011;8578;50.938;13.556;2023-04-02T11:53:02;2.97;;;2.03;;
16922;SDS011;8578;50.938;13.556;2023-04-02T11:55:30;4.00;;;2.37;;
16922;SDS011;8578;50.938;13.556;2023-04-02T11:58:16;5.00;;;2.90;;
16922;SDS011;8578;50.938;13.556;2023-04-02T12:00:54;5.27;;;2.60;;
16922;SDS011;8578;50.938;13.556;2023-04-02T12:03:29;4.40;;;2.60;;
16922;SDS011;8578;50.938;13.556;2023-04-02T12:05:59;5.13;;;2.23;;
16922;SDS011;8578;50.938;13.556;2023-04-02T12:08:32;5.23;;;2.87;;
16922;SDS011;8578;50.938;13.556;2023-04-02T12:11:16;5.70;;;2.90;;
16922;SDS011;8578;50.938;13.556;2023-04-02T12:13:49;4.20;;;2.83;;
16922;SDS011;8578;50.938;13.556;2023-04-02T12:16:17;3.57;;;2.60;;
16922;SDS011;8578;50.938;13.556;2023-04-02T12:18:46;6.57;;;3.10;;
16922;SDS011;8578;50.938;13.556;2023-04-02T12:21:16;5.73;;;2.87;;
16922;SDS011;8578;50.938;13.556;2023-04-02T12:23:44;4.57;;;2.70;;
16922;SDS011;8578;50.938;13.556;2023-04-02T12:26:26;4.87;;;2.77;;
16922;SDS011;8578;50.938;13.556;2023-04-02T12:31:41;3.20;;;2.40;;
16922;SDS011;8578;50.938;13.556;2023-04-02T12:34:11;3.90;;;2.13;;
16922;SDS011;8578;50.938;13.556;2023-04-02T12:36:40;6.53;;;2.03;;
16922;SDS011;8578;50.938;13.556;2023-04-02T12:39:17;4.00;;;2.20;;
16922;SDS011;8578;50.938;13.556;2023-04-02T12:41:45;6.67;;;2.43;;
16922;SDS011;8578;50.938;13.556;2023-04-02T12:44:13;4.73;;;2.30;;
16922;SDS011;8578;50.938;13.556;2023-04-02T12:46:44;4.80;;;2.10;;
16922;SDS011;8578;50.938;13.556;2023-04-02T12:49:17;3.97;;;2.03;;
16922;SDS011;8578;50.938;13.556;2023-04-02T12:51:47;5.73;;;2.47;;
16922;SDS011;8578;50.938;13.556;2023-04-02T12:54:15;4.83;;;1.80;;
16922;SDS011;8578;50.938;13.556;2023-04-02T12:56:43;4.33;;;1.97;;
16922;SDS011;8578;50.938;13.556;2023-04-02T12:59:18;4.33;;;2.53;;
16922;SDS011;8578;50.938;13.556;2023-04-02T13:01:55;5.07;;;2.10;;
16922;SDS011;8578;50.938;13.556;2023-04-02T13:04:23;3.27;;;2.10;;
16922;SDS011;8578;50.938;13.556;2023-04-02T13:06:51;4.53;;;2.37;;
16922;SDS011;8578;50.938;13.556;2023-04-02T13:09:30;3.80;;;2.33;;
16922;SDS011;8578;50.938;13.556;2023-04-02T13:11:59;3.93;;;2.00;;
16922;SDS011;8578;50.938;13.556;2023-04-02T13:14:27;5.30;;;2.40;;
16922;SDS011;8578;50.938;13.556;2023-04-02T13:16:56;3.80;;;2.23;;
16922;SDS011;8578;50.938;13.556;2023-04-02T13:19:27;3.70;;;2.20;;
16922;SDS011;8578;50.938;13.556;2023-04-02T13:21:55;4.73;;;2.27;;
16922;SDS011;8578;50.938;13.556;2023-04-02T13:24:23;6.77;;;2.63;;
16922;SDS011;8578;50.938;13.556;2023-04-02T13:26:53;4.03;;;2.67;;
16922;SDS011;8578;50.938;13.556;2023-04-02T13:29:22;4.63;;;2.30;;
16922;SDS011;8578;50.938;13.556;2023-04-02T13:31:50;3.03;;;1.73;;
16922;SDS011;8578;50.938;13.556;2023-04-02T13:34:20;5.13;;;2.20;;
16922;SDS011;8578;50.938;13.556;2023-04-02T13:36:47;4.93;;;2.03;;
16922;SDS011;8578;50.938;13.556;2023-04-02T13:39:16;3.00;;;1.50;;
16922;SDS011;8578;50.938;13.556;2023-04-02T13:41:45;1.83;;;1.27;;
16922;SDS011;8578;50.938;13.556;2023-04-02T13:44:17;2.07;;;1.20;;
16922;SDS011;8578;50.938;13.556;2023-04-02T13:46:45;1.97;;;0.97;;
16922;SDS011;8578;50.938;13.556;2023-04-02T13:49:13;3.87;;;1.40;;
16922;SDS011;8578;50.938;13.556;2023-04-02T13:51:43;1.77;;;0.90;;
16922;SDS011;8578;50.938;13.556;2023-04-02T13:54:13;1.93;;;1.10;;
16922;SDS011;8578;50.938;13.556;2023-04-02T13:56:42;1.93;;;0.73;;
16922;SDS011;8578;50.938;13.556;2023-04-02T13:59:09;2.03;;;0.83;;
16922;SDS011;8578;50.938;13.556;2023-04-02T14:01:37;2.20;;;1.10;;
16922;SDS011;8578;50.938;13.556;2023-04-02T14:04:04;3.13;;;0.97;;
16922;SDS011;8578;50.938;13.556;2023-04-02T14:09:36;2.43;;;0.80;;
16922;SDS011;8578;50.938;13.556;2023-04-02T14:12:08;2.17;;;0.83;;
16922;SDS011;8578;50.938;13.556;2023-04-02T14:14:45;3.70;;;0.73;;
16922;SDS011;8578;50.938;13.556;2023-04-02T14:17:18;3.93;;;1.07;;
16922;SDS011;8578;50.938;13.556;2023-04-02T14:19:56;6.87;;;1.60;;
16922;SDS011;8578;50.938;13.556;2023-04-02T14:22:28;3.63;;;1.10;;
16922;SDS011;8578;50.938;13.556;2023-04-02T14:24:59;3.17;;;0.80;;
16922;SDS011;8578;50.938;13.556;2023-04-02T14:27:32;2.03;;;0.80;;
16922;SDS011;8578;50.938;13.556;2023-04-02T14:30:07;2.73;;;0.97;;
16922;SDS011;8578;50.938;13.556;2023-04-02T14:32:38;2.83;;;1.13;;
16922;SDS011;8578;50.938;13.556;2023-04-02T14:35:12;4.43;;;0.90;;
16922;SDS011;8578;50.938;13.556;2023-04-02T14:37:44;2.57;;;1.00;;
16922;SDS011;8578;50.938;13.556;2023-04-02T14:40:20;1.53;;;0.90;;
16922;SDS011;8578;50.938;13.556;2023-04-02T14:42:51;2.27;;;0.80;;
16922;SDS011;8578;50.938;13.556;2023-04-02T14:45:22;1.27;;;0.70;;
16922;SDS011;8578;50.938;13.556;2023-04-02T14:47:53;2.83;;;1.20;;
16922;SDS011;8578;50.938;13.556;2023-04-02T14:50:25;2.87;;;1.00;;
16922;SDS011;8578;50.938;13.556;2023-04-02T14:52:55;4.43;;;1.27;;
16922;SDS011;8578;50.938;13.556;2023-04-02T14:55:26;2.20;;;1.00;;
16922;SDS011;8578;50.938;13.556;2023-04-02T14:57:57;2.97;;;0.90;;
16922;SDS011;8578;50.938;13.556;2023-04-02T15:00:28;5.00;;;1.17;;
16922;SDS011;8578;50.938;13.556;2023-04-02T15:03:01;1.43;;;1.00;;
16922;SDS011;8578;50.938;13.556;2023-04-02T15:05:32;1.63;;;1.10;;
16922;SDS011;8578;50.938;13.556;2023-04-02T15:08:02;2.00;;;0.90;;
16922;SDS011;8578;50.938;13.556;2023-04-02T15:10:32;1.73;;;1.13;;
16922;SDS011;8578;50.938;13.556;2023-04-02T15:13:02;4.40;;;1.30;;
16922;SDS011;8578;50.938;13.556;2023-04-02T15:15:34;1.00;;;0.70;;
16922;SDS011;8578;50.938;13.556;2023-04-02T15:18:08;4.63;;;1.30;;
16922;SDS011;8578;50.938;13.556;2023-04-02T15:20:37;2.57;;;1.30;;
16922;SDS011;8578;50.938;13.556;2023-04-02T15:23:06;2.27;;;1.40;;
16922;SDS011;8578;50.938;13.556;2023-04-02T15:25:37;1.97;;;1.60;;
16922;SDS011;8578;50.938;13.556;2023-04-02T15:28:12;1.70;;;1.27;;
16922;SDS011;8578;50.938;13.556;2023-04-02T15:30:44;2.03;;;1.30;;
16922;SDS011;8578;50.938;13.556;2023-04-02T15:33:24;2.93;;;1.60;;
16922;SDS011;8578;50.938;13.556;2023-04-02T15:35:57;2.40;;;1.90;;
16922;SDS011;8578;50.938;13.556;2023-04-02T15:38:27;5.33;;;1.93;;
16922;SDS011;8578;50.938;13.556;2023-04-02T15:41:00;2.50;;;1.90;;
16922;SDS011;8578;50.938;13.556;2023-04-02T15:43:30;4.30;;;1.53;;
16922;SDS011;8578;50.938;13.556;2023-04-02T15:46:11;1.87;;;1.40;;